Time;durP1;ratioP1;P1;durP2;ratioP2;P2;SDS_P1;SDS_P2;PMS_P1;PMS_P2;Temp;Humidity;BMP_temperature;BMP_pressure;BME280_temperature;BME280_humidity;BME280_pressure;Samples;Min_cycle;Max_cycle;Signal;HPM_P1;HPM_P2
2024/01/22 00:00:57;;;;;;;;;;;;;;;21.92;18.58;99695.19;5035391;28;1027;-72
2024/01/22 00:03:22;;;;;;;;;;;;;;;21.33;19.08;99696.38;5017977;28;1981;-71
2024/01/22 00:05:48;;;;;;;;;;;;;;;20.86;19.90;99702.31;5018168;28;1674;-70
2024/01/22 00:08:13;;;;;;;;;;;;;;;21.12;19.32;99707.63;5018569;28;996;-71
2024/01/22 00:10:39;;;;;;;;;;;;;;;21.33;19.25;99699.19;5002149;28;1322;-71
2024/01/22 00:13:06;;;;;;;;;;;;;;;21.33;19.49;99699.19;5018905;28;1066;-72
2024/01/22 00:15:32;;;;;;;;;;;;;;;21.32;19.45;99708.91;5019631;28;924;-72
2024/01/22 00:17:58;;;;;;;;;;;;;;;21.63;18.87;99709.34;5002483;28;920;-71
2024/01/22 00:20:23;;;;;;;;;;;;;;;21.50;18.92;99713.78;5018474;28;918;-72
2024/01/22 00:22:49;;;;;;;;;;;;;;;21.63;19.05;99715.03;5018419;28;1906;-71
2024/01/22 00:25:14;;;;;;;;;;;;;;;21.41;19.02;99722.69;5002463;28;1149;-71
2024/01/22 00:27:40;;;;;;;;;;;;;;;21.61;18.95;99731.63;5002112;28;1675;-72
2024/01/22 00:30:06;;;;;;;;;;;;;;;21.45;19.18;99722.69;5018647;28;913;-71
2024/01/22 00:32:31;;;;;;;;;;;;;;;21.02;19.63;99733.88;5019589;28;949;-71
2024/01/22 00:34:57;;;;;;;;;;;;;;;20.87;19.63;99721.69;5019887;28;1033;-71
2024/01/22 00:37:22;;;;;;;;;;;;;;;21.04;19.56;99737.13;5001879;28;1233;-71
2024/01/22 00:39:48;;;;;;;;;;;;;;;21.39;19.19;99729.97;5002156;28;931;-71
2024/01/22 00:42:13;;;;;;;;;;;;;;;21.19;19.30;99735.97;5018491;28;911;-71
2024/01/22 00:44:39;;;;;;;;;;;;;;;21.53;19.24;99735.66;5019406;28;1973;-71
2024/01/22 00:47:05;;;;;;;;;;;;;;;21.81;18.89;99734.84;5019094;28;1048;-71
2024/01/22 00:49:30;;;;;;;;;;;;;;;21.62;19.00;99733.22;5018288;28;1019;-71
2024/01/22 00:51:56;;;;;;;;;;;;;;;21.73;18.96;99739.72;5002131;28;1233;-72
2024/01/22 00:54:21;;;;;;;;;;;;;;;21.58;19.07;99746.56;5019028;28;950;-71
2024/01/22 00:56:46;;;;;;;;;;;;;;;21.49;19.20;99734.81;5019042;28;1064;-71
2024/01/22 00:59:12;;;;;;;;;;;;;;;21.55;19.20;99736.03;5017650;28;911;-72
2024/01/22 01:01:38;;;;;;;;;;;;;;;21.65;18.99;99743.75;5018081;28;927;-71
2024/01/22 01:04:03;;;;;;;;;;;;;;;21.58;18.80;99747.38;5001426;28;1985;-71
2024/01/22 01:06:29;;;;;;;;;;;;;;;21.09;19.42;99745.25;5001651;28;1045;-71
2024/01/22 01:08:54;;;;;;;;;;;;;;;20.81;19.69;99748.75;5018881;28;989;-71
2024/01/22 01:11:20;;;;;;;;;;;;;;;21.28;19.35;99742.03;5018696;28;977;-71
2024/01/22 01:13:45;;;;;;;;;;;;;;;21.37;19.40;99740.88;5018932;28;850;-72
2024/01/22 01:16:11;;;;;;;;;;;;;;;21.20;19.50;99740.41;5017598;28;959;-71
2024/01/22 01:18:36;;;;;;;;;;;;;;;21.43;19.29;99736.44;5017860;28;980;-71
2024/01/22 01:21:02;;;;;;;;;;;;;;;21.51;19.22;99733.22;5001092;28;963;-72
2024/01/22 01:23:27;;;;;;;;;;;;;;;21.54;19.00;99735.22;5017743;28;1906;-71
2024/01/22 01:25:53;;;;;;;;;;;;;;;21.62;18.87;99736.06;5001266;28;909;-71
2024/01/22 01:28:18;;;;;;;;;;;;;;;21.68;18.85;99731.63;5017183;28;924;-71
2024/01/22 01:30:44;;;;;;;;;;;;;;;21.36;19.33;99730.78;5018727;28;1004;-71
2024/01/22 01:33:09;;;;;;;;;;;;;;;21.24;19.34;99723.41;5017212;28;1210;-71
2024/01/22 01:35:35;;;;;;;;;;;;;;;21.30;19.18;99722.69;5017118;28;1044;-71
2024/01/22 01:38:00;;;;;;;;;;;;;;;21.26;19.47;99727.50;5001023;28;1120;-72
2024/01/22 01:40:26;;;;;;;;;;;;;;;21.77;18.60;99729.19;5015835;28;1008;-71
2024/01/22 01:42:53;;;;;;;;;;;;;;;21.49;19.14;99729.16;5015679;28;1902;-72
2024/01/22 01:45:19;;;;;;;;;;;;;;;21.03;19.65;99718.50;5015772;28;1073;-71
2024/01/22 01:47:48;;;;;;;;;;;;;;;20.95;19.74;99719.72;4999883;28;944;-71
2024/01/22 01:50:14;;;;;;;;;;;;;;;21.32;19.14;99717.41;4999714;28;931;-71
2024/01/22 01:52:39;;;;;;;;;;;;;;;21.24;19.25;99718.59;4999711;28;1028;-71
2024/01/22 01:55:05;;;;;;;;;;;;;;;21.25;19.20;99719.41;4999470;28;1014;-71
2024/01/22 01:57:31;;;;;;;;;;;;;;;21.26;19.17;99716.16;4983393;28;1142;-71
2024/01/22 01:59:56;;;;;;;;;;;;;;;21.25;19.17;99720.22;4983161;28;1228;-71
2024/01/22 02:02:22;;;;;;;;;;;;;;;21.42;19.13;99717.84;4983208;28;1140;-72
2024/01/22 02:04:48;;;;;;;;;;;;;;;21.35;19.25;99717.81;4982867;28;1899;-71
2024/01/22 02:07:13;;;;;;;;;;;;;;;21.36;19.06;99720.25;4983083;28;982;-72
2024/01/22 02:09:48;;;;;;;;;;;;;;;21.60;18.71;99718.66;4999146;28;1048;-72
2024/01/22 02:12:14;;;;;;;;;;;;;;;21.02;19.05;99646.16;4996824;28;1337;-72
2024/01/22 02:14:40;;;;;;;;;;;;;;;21.38;19.36;99715.00;5016917;28;938;-71
2024/01/22 02:17:05;;;;;;;;;;;;;;;21.66;18.92;99725.56;5000065;28;919;-72
2024/01/22 02:19:31;;;;;;;;;;;;;;;21.24;19.11;99724.25;5015204;28;987;-71
2024/01/22 02:21:57;;;;;;;;;;;;;;;20.96;19.52;99724.16;4982676;28;1158;-71
2024/01/22 02:24:22;;;;;;;;;;;;;;;21.30;18.95;99717.00;4998999;28;1919;-72
2024/01/22 02:26:48;;;;;;;;;;;;;;;21.73;18.77;99722.72;4998880;28;1012;-71
2024/01/22 02:29:13;;;;;;;;;;;;;;;21.19;19.41;99721.81;5015373;28;1111;-72
2024/01/22 02:31:39;;;;;;;;;;;;;;;21.29;19.19;99723.84;4999056;28;1082;-72
2024/01/22 02:34:04;;;;;;;;;;;;;;;21.55;19.09;99721.88;5015032;28;1050;-71
2024/01/22 02:36:30;;;;;;;;;;;;;;;21.41;18.82;99724.72;4998797;28;993;-71
2024/01/22 02:38:55;;;;;;;;;;;;;;;21.61;18.88;99725.97;4982367;28;1114;-71
2024/01/22 02:41:21;;;;;;;;;;;;;;;21.40;19.10;99725.91;4995016;28;1057;-71
2024/01/22 02:43:46;;;;;;;;;;;;;;;21.31;19.18;99729.16;4994845;28;1979;-72
2024/01/22 02:46:12;;;;;;;;;;;;;;;21.44;18.95;99732.41;4979134;28;982;-71
2024/01/22 02:48:37;;;;;;;;;;;;;;;21.45;19.05;99717.84;4978751;28;1091;-71
2024/01/22 02:51:07;;;;;;;;;;;;;;;21.21;19.28;99719.38;4978937;28;985;-71
2024/01/22 02:53:32;;;;;;;;;;;;;;;21.10;19.34;99718.56;4978617;28;978;-71
2024/01/22 02:55:58;;;;;;;;;;;;;;;21.41;18.98;99728.34;4978817;28;978;-71
2024/01/22 02:58:23;;;;;;;;;;;;;;;21.14;19.29;99722.22;4994979;28;1011;-71
2024/01/22 03:00:49;;;;;;;;;;;;;;;20.96;19.33;99729.81;4995188;28;984;-71
2024/01/22 03:03:15;;;;;;;;;;;;;;;20.93;19.46;99731.41;4995063;28;1898;-71
2024/01/22 03:05:41;;;;;;;;;;;;;;;21.11;19.17;99742.81;4978606;28;1246;-71
2024/01/22 03:08:07;;;;;;;;;;;;;;;21.33;19.07;99738.84;4994643;28;1115;-71
2024/01/22 03:10:32;;;;;;;;;;;;;;;21.14;19.17;99742.03;4994945;28;983;-71
2024/01/22 03:12:57;;;;;;;;;;;;;;;21.47;18.81;99731.59;5011326;28;959;-71
2024/01/22 03:15:23;;;;;;;;;;;;;;;21.33;18.77;99738.84;5016975;28;980;-71
2024/01/22 03:17:48;;;;;;;;;;;;;;;21.20;18.97;99729.09;5015626;28;869;-71
2024/01/22 03:20:14;;;;;;;;;;;;;;;21.61;18.99;99730.81;5016813;28;923;-71
2024/01/22 03:22:40;;;;;;;;;;;;;;;21.67;18.44;99724.34;5015201;28;1977;-72
2024/01/22 03:25:05;;;;;;;;;;;;;;;21.43;19.02;99731.59;5015397;28;1036;-72
2024/01/22 03:27:31;;;;;;;;;;;;;;;21.62;18.57;99721.91;4998715;28;1366;-71
2024/01/22 03:29:56;;;;;;;;;;;;;;;21.79;18.70;99720.28;5017024;28;967;-71
2024/01/22 03:32:22;;;;;;;;;;;;;;;21.49;18.72;99720.66;5015329;28;978;-71
2024/01/22 03:34:47;;;;;;;;;;;;;;;21.27;18.99;99734.75;5016521;28;1020;-72
2024/01/22 03:37:13;;;;;;;;;;;;;;;21.02;19.46;99736.72;5016616;28;938;-71
2024/01/22 03:39:38;;;;;;;;;;;;;;;21.30;19.00;99739.66;5014382;28;942;-72
2024/01/22 03:42:04;;;;;;;;;;;;;;;21.29;19.02;99726.66;5015360;28;973;-71
2024/01/22 03:44:29;;;;;;;;;;;;;;;21.53;18.81;99735.66;5016187;28;1971;-71
2024/01/22 03:46:55;;;;;;;;;;;;;;;21.69;18.59;99732.41;4997946;28;1003;-71
2024/01/22 03:49:20;;;;;;;;;;;;;;;21.54;18.74;99731.59;5016169;28;1054;-72
2024/01/22 03:51:46;;;;;;;;;;;;;;;21.44;18.80;99732.41;4997794;28;971;-71
2024/01/22 03:54:11;;;;;;;;;;;;;;;21.66;18.68;99727.56;5014779;28;1015;-71
2024/01/22 03:56:37;;;;;;;;;;;;;;;21.62;18.85;99733.22;5015158;28;932;-73
2024/01/22 03:59:03;;;;;;;;;;;;;;;21.40;19.00;99731.56;4998822;28;1186;-73
2024/01/22 04:01:28;;;;;;;;;;;;;;;20.97;19.38;99732.25;5016029;28;976;-74
2024/01/22 04:03:54;;;;;;;;;;;;;;;21.18;19.09;99725.84;5015866;28;1898;-73
2024/01/22 04:06:19;;;;;;;;;;;;;;;21.05;19.52;99733.09;4998662;28;1174;-74
2024/01/22 04:08:45;;;;;;;;;;;;;;;21.02;19.42;99722.56;5015087;28;747;-73
2024/01/22 04:11:10;;;;;;;;;;;;;;;21.39;18.88;99724.28;5016218;28;901;-74
2024/01/22 04:13:40;;;;;;;;;;;;;;;21.27;18.99;99723.44;5015206;28;940;-73
2024/01/22 04:16:06;;;;;;;;;;;;;;;21.52;18.86;99732.00;4998476;28;1191;-73
2024/01/22 04:18:31;;;;;;;;;;;;;;;21.44;18.80;99723.91;5016105;28;851;-73
2024/01/22 04:20:57;;;;;;;;;;;;;;;21.33;19.05;99727.53;5016303;28;918;-73
2024/01/22 04:23:22;;;;;;;;;;;;;;;21.44;18.77;99726.72;4998139;28;1973;-74
2024/01/22 04:25:48;;;;;;;;;;;;;;;21.47;18.94;99720.28;5014760;28;1036;-73
2024/01/22 04:28:14;;;;;;;;;;;;;;;21.61;18.69;99717.47;5015906;28;922;-74
2024/01/22 04:30:40;;;;;;;;;;;;;;;21.55;18.59;99727.53;5016325;28;932;-73
2024/01/22 04:33:06;;;;;;;;;;;;;;;21.66;18.64;99722.72;4998488;28;899;-74
2024/01/22 04:35:31;;;;;;;;;;;;;;;21.59;18.71;99722.69;5016007;28;1068;-73
2024/01/22 04:37:57;;;;;;;;;;;;;;;21.36;18.92;99714.59;5015834;28;947;-73
2024/01/22 04:40:22;;;;;;;;;;;;;;;21.65;18.72;99715.41;4998554;28;925;-74
2024/01/22 04:42:48;;;;;;;;;;;;;;;21.22;18.87;99726.66;5015904;28;1902;-74
2024/01/22 04:45:13;;;;;;;;;;;;;;;20.95;19.31;99729.03;5015760;28;1029;-73
2024/01/22 04:47:39;;;;;;;;;;;;;;;21.06;19.42;99721.38;5014459;28;876;-73
2024/01/22 04:50:05;;;;;;;;;;;;;;;21.39;18.94;99727.94;5014693;28;991;-73
2024/01/22 04:52:30;;;;;;;;;;;;;;;21.40;18.90;99720.25;5001068;28;1281;-73
2024/01/22 04:54:56;;;;;;;;;;;;;;;21.49;18.55;99717.84;5001626;28;1150;-74
2024/01/22 04:57:21;;;;;;;;;;;;;;;21.45;18.73;99717.00;5001792;28;977;-73
2024/01/22 04:59:47;;;;;;;;;;;;;;;21.48;18.47;99722.69;5019265;28;992;-73
2024/01/22 05:02:12;;;;;;;;;;;;;;;21.57;18.73;99725.13;5001683;28;1244;-73
2024/01/22 05:04:38;;;;;;;;;;;;;;;21.66;18.52;99719.06;5002923;28;1906;-74
2024/01/22 05:07:03;;;;;;;;;;;;;;;21.44;18.76;99726.72;5038504;28;819;-73
2024/01/22 05:09:29;;;;;;;;;;;;;;;21.57;18.75;99719.47;5038725;28;804;-73
2024/01/22 05:11:54;;;;;;;;;;;;;;;21.58;18.60;99726.75;5020764;28;782;-73
2024/01/22 05:14:20;;;;;;;;;;;;;;;21.55;18.73;99728.38;5038718;28;846;-73
2024/01/22 05:16:45;;;;;;;;;;;;;;;21.37;18.90;99726.72;5020865;28;1141;-74
2024/01/22 05:19:11;;;;;;;;;;;;;;;21.66;18.47;99731.22;5038631;28;743;-74
2024/01/22 05:21:36;;;;;;;;;;;;;;;21.72;18.43;99732.44;5038596;28;802;-74
2024/01/22 05:24:02;;;;;;;;;;;;;;;21.26;18.81;99729.50;4986996;28;1899;-73
2024/01/22 05:26:28;;;;;;;;;;;;;;;20.99;19.23;99724.19;5021360;28;834;-73
2024/01/22 05:28:53;;;;;;;;;;;;;;;21.50;18.57;99725.94;5020798;28;860;-74
2024/01/22 05:31:19;;;;;;;;;;;;;;;21.37;18.81;99721.06;5020973;28;724;-73
2024/01/22 05:33:44;;;;;;;;;;;;;;;21.19;18.77;99724.66;5038328;28;903;-74
2024/01/22 05:36:10;;;;;;;;;;;;;;;21.16;18.79;99736.75;5020593;28;803;-73
2024/01/22 05:38:39;;;;;;;;;;;;;;;21.28;18.63;99725.06;5004030;28;1163;-74
2024/01/22 05:41:05;;;;;;;;;;;;;;;21.38;18.80;99731.19;4996216;28;964;-73
2024/01/22 05:43:30;;;;;;;;;;;;;;;21.36;18.65;99733.59;4979976;28;1977;-73
2024/01/22 05:45:56;;;;;;;;;;;;;;;21.42;18.45;99734.81;4979945;28;1115;-73
2024/01/22 05:48:21;;;;;;;;;;;;;;;21.59;18.40;99728.38;4964285;28;1116;-71
2024/01/22 05:50:47;;;;;;;;;;;;;;;21.64;18.51;99725.13;4980372;28;819;-71
2024/01/22 05:53:12;;;;;;;;;;;;;;;21.57;18.34;99725.13;4979699;28;940;-71
2024/01/22 05:55:39;;;;;;;;;;;;;;;21.62;18.13;99727.56;4963968;28;1201;-71
2024/01/22 05:58:05;;;;;;;;;;;;;;;21.28;18.68;99735.56;4996497;28;815;-71
2024/01/22 06:00:30;;;;;;;;;;;;;;;21.04;19.15;99739.97;4979744;28;1234;-71
2024/01/22 06:02:56;;;;;;;;;;;;;;;20.93;19.03;99736.28;4963026;28;1957;-71
2024/01/22 06:05:22;;;;;;;;;;;;;;;21.35;18.54;99748.94;4979209;28;1341;-71
2024/01/22 06:07:48;;;;;;;;;;;;;;;21.24;18.71;99744.06;4996043;28;1079;-71
2024/01/22 06:10:13;;;;;;;;;;;;;;;21.42;18.70;99749.00;4979727;28;1242;-71
2024/01/22 06:12:39;;;;;;;;;;;;;;;21.43;18.73;99756.25;5026552;28;794;-71
2024/01/22 06:15:05;;;;;;;;;;;;;;;21.52;18.25;99763.16;5037275;28;814;-71
2024/01/22 06:17:33;;;;;;;;;;;;;;;21.49;18.52;99757.47;5019576;28;815;-71
2024/01/22 06:20:00;;;;;;;;;;;;;;;21.55;18.25;99764.38;5037384;28;798;-70
2024/01/22 06:22:29;;;;;;;;;;;;;;;21.49;18.41;99760.31;5003379;28;1083;-71
2024/01/22 06:24:54;;;;;;;;;;;;;;;21.40;18.69;99759.88;5019458;28;1989;-70
2024/01/22 06:27:20;;;;;;;;;;;;;;;21.49;18.37;99757.47;5019493;28;1280;-71
2024/01/22 06:29:45;;;;;;;;;;;;;;;21.54;18.34;99769.22;5019405;28;751;-71
2024/01/22 06:32:11;;;;;;;;;;;;;;;21.74;18.35;99764.00;5037065;28;688;-71
2024/01/22 06:34:36;;;;;;;;;;;;;;;21.26;18.75;99769.94;5019192;28;800;-70
2024/01/22 06:37:03;;;;;;;;;;;;;;;20.92;19.02;99762.94;5019256;28;1238;-70
2024/01/22 06:39:28;;;;;;;;;;;;;;;21.32;18.85;99776.88;5019304;28;835;-71
2024/01/22 06:41:54;;;;;;;;;;;;;;;21.38;18.47;99767.97;5036989;28;759;-71
2024/01/22 06:44:19;;;;;;;;;;;;;;;21.46;18.24;99763.97;5036922;28;1910;-71
2024/01/22 06:46:45;;;;;;;;;;;;;;;21.43;18.69;99771.22;5036673;28;836;-71
2024/01/22 06:49:10;;;;;;;;;;;;;;;21.32;18.54;99776.88;5036849;28;933;-70
2024/01/22 06:51:36;;;;;;;;;;;;;;;21.36;18.48;99765.56;4995052;28;908;-72
2024/01/22 06:54:02;;;;;;;;;;;;;;;21.44;18.43;99767.19;4962832;28;1211;-71
2024/01/22 06:56:27;;;;;;;;;;;;;;;21.02;18.79;99756.53;4994884;28;870;-71
2024/01/22 06:58:53;;;;;;;;;;;;;;;21.26;18.67;99769.94;4995118;28;886;-71
2024/01/22 07:01:19;;;;;;;;;;;;;;;21.74;18.17;99764.00;4994749;28;841;-71
2024/01/22 07:03:45;;;;;;;;;;;;;;;21.56;18.50;99771.69;4962701;28;1973;-71
2024/01/22 07:06:11;;;;;;;;;;;;;;;21.02;18.96;99768.66;4978620;28;1046;-70
2024/01/22 07:08:36;;;;;;;;;;;;;;;21.11;19.12;99759.78;4978399;28;1270;-70
2024/01/22 07:11:02;;;;;;;;;;;;;;;21.37;18.72;99766.38;4978714;28;1169;-71
2024/01/22 07:13:28;;;;;;;;;;;;;;;21.45;18.46;99768.00;4978150;28;823;-70
2024/01/22 07:15:54;;;;;;;;;;;;;;;21.33;18.68;99772.00;4994790;28;850;-70
2024/01/22 07:18:19;;;;;;;;;;;;;;;21.47;18.61;99776.91;4962292;28;1112;-70
2024/01/22 07:20:45;;;;;;;;;;;;;;;21.57;18.48;99779.75;4978647;28;716;-71
2024/01/22 07:23:10;;;;;;;;;;;;;;;21.62;18.29;99784.22;5008614;28;1906;-71
2024/01/22 07:25:37;;;;;;;;;;;;;;;21.30;18.65;99781.31;5018724;28;1124;-71
2024/01/22 07:28:03;;;;;;;;;;;;;;;20.84;19.21;99787.59;5018537;28;1161;-71
2024/01/22 07:30:29;;;;;;;;;;;;;;;20.99;19.20;99785.63;5018326;28;806;-71
2024/01/22 07:32:54;;;;;;;;;;;;;;;21.48;18.58;99784.19;5002258;28;1147;-71
2024/01/22 07:35:20;;;;;;;;;;;;;;;21.44;18.79;99781.34;5018566;28;1135;-70
2024/01/22 07:37:45;;;;;;;;;;;;;;;21.20;18.83;99785.72;5001950;28;724;-71
2024/01/22 07:40:11;;;;;;;;;;;;;;;21.43;18.82;99784.59;5002186;28;1111;-71
2024/01/22 07:42:37;;;;;;;;;;;;;;;21.35;18.64;99785.75;5018442;28;759;-71
2024/01/22 07:45:03;;;;;;;;;;;;;;;21.24;18.88;99783.72;5018542;28;1990;-71
2024/01/22 07:47:29;;;;;;;;;;;;;;;21.32;18.94;99782.53;5018405;28;1099;-71
2024/01/22 07:49:55;;;;;;;;;;;;;;;21.48;18.51;99778.53;5001786;28;827;-70
2024/01/22 07:52:21;;;;;;;;;;;;;;;21.53;18.61;99783.78;5018602;28;1222;-70
2024/01/22 07:54:47;;;;;;;;;;;;;;;21.38;18.78;99779.31;5002105;28;1299;-71
2024/01/22 07:57:12;;;;;;;;;;;;;;;21.41;18.56;99785.00;5002072;28;1152;-71
2024/01/22 07:59:38;;;;;;;;;;;;;;;21.26;18.90;99784.09;4984715;28;1314;-70
2024/01/22 08:02:04;;;;;;;;;;;;;;;21.49;18.56;99780.13;5018324;28;806;-71
2024/01/22 08:04:32;;;;;;;;;;;;;;;21.56;18.57;99780.19;5018029;28;1914;-71
2024/01/22 08:07:03;;;;;;;;;;;;;;;21.73;18.41;99781.41;5018037;28;822;-71
2024/01/22 08:09:31;;;;;;;;;;;;;;;21.45;18.83;99784.97;5018262;28;850;-70
2024/01/22 08:11:56;;;;;;;;;;;;;;;21.10;19.33;99791.34;5001712;28;739;-71
2024/01/22 08:14:22;;;;;;;;;;;;;;;20.91;19.42;99800.94;5035804;28;763;-70
2024/01/22 08:16:49;;;;;;;;;;;;;;;21.18;19.32;99787.31;5035475;28;771;-71
2024/01/22 08:19:14;;;;;;;;;;;;;;;21.55;18.83;99795.53;5018371;28;779;-71
2024/01/22 08:21:40;;;;;;;;;;;;;;;21.64;18.78;99800.81;5001061;28;930;-71
2024/01/22 08:24:05;;;;;;;;;;;;;;;21.55;18.83;99789.84;5017888;28;1910;-71
2024/01/22 08:26:31;;;;;;;;;;;;;;;21.85;18.61;99786.66;5005199;28;715;-71
2024/01/22 08:28:56;;;;;;;;;;;;;;;21.69;18.56;99798.38;5039491;28;807;-71
2024/01/22 08:31:23;;;;;;;;;;;;;;;21.33;19.18;99795.47;4981428;28;976;-71
2024/01/22 08:33:49;;;;;;;;;;;;;;;21.33;18.96;99789.81;4997753;28;850;-70
2024/01/22 08:36:15;;;;;;;;;;;;;;;21.25;19.24;99793.81;4942739;29;1261;-71
2024/01/22 08:38:40;;;;;;;;;;;;;;;20.97;19.50;99791.66;4911188;29;1095;-71
2024/01/22 08:41:08;;;;;;;;;;;;;;;20.96;19.45;99800.56;4942554;29;1042;-71
2024/01/22 08:43:34;;;;;;;;;;;;;;;21.15;19.23;99788.94;4927147;29;1914;-71
2024/01/22 08:45:59;;;;;;;;;;;;;;;21.43;18.99;99798.75;4942877;29;788;-71
2024/01/22 08:48:25;;;;;;;;;;;;;;;21.47;19.04;99791.06;4942579;28;1087;-71
2024/01/22 08:50:51;;;;;;;;;;;;;;;21.56;18.99;99797.16;4942306;29;820;-71
2024/01/22 08:53:17;;;;;;;;;;;;;;;21.28;19.09;99787.34;4942753;29;799;-71
2024/01/22 08:55:42;;;;;;;;;;;;;;;21.59;19.00;99785.81;4926692;29;1490;-71
2024/01/22 08:58:09;;;;;;;;;;;;;;;21.45;18.89;99780.16;4919869;29;941;-71
2024/01/22 09:00:35;;;;;;;;;;;;;;;21.45;19.10;99784.97;4904324;29;900;-71
2024/01/22 09:03:00;;;;;;;;;;;;;;;21.46;19.06;99775.28;4919007;29;1911;-71
2024/01/22 09:05:26;;;;;;;;;;;;;;;21.54;18.87;99779.75;4939279;29;1051;-71
2024/01/22 09:07:52;;;;;;;;;;;;;;;21.14;19.60;99770.34;4938873;29;886;-71
2024/01/22 09:10:18;;;;;;;;;;;;;;;20.99;19.51;99771.50;4939233;29;1118;-71
2024/01/22 09:12:43;;;;;;;;;;;;;;;21.35;19.24;99765.94;4941055;29;930;-70
2024/01/22 09:15:10;;;;;;;;;;;;;;;21.65;19.01;99763.56;4957986;29;880;-70
2024/01/22 09:17:36;;;;;;;;;;;;;;;21.35;19.40;99757.44;4958112;29;1312;-71
2024/01/22 09:20:02;;;;;;;;;;;;;;;21.59;19.14;99756.69;4942222;29;1139;-71
2024/01/22 09:22:28;;;;;;;;;;;;;;;21.68;18.75;99748.63;4919456;29;985;-71
2024/01/22 09:24:54;;;;;;;;;;;;;;;21.92;18.60;99749.84;4919954;29;1993;-72
2024/01/22 09:27:20;;;;;;;;;;;;;;;21.58;18.85;99760.75;4904261;29;793;-71
2024/01/22 09:29:45;;;;;;;;;;;;;;;21.22;19.48;99759.81;4918573;29;844;-71
2024/01/22 09:32:11;;;;;;;;;;;;;;;21.30;19.34;99761.50;4938709;29;752;-71
2024/01/22 09:34:36;;;;;;;;;;;;;;;21.41;19.23;99750.19;4938721;29;902;-71
2024/01/22 09:37:03;;;;;;;;;;;;;;;21.33;19.29;99741.69;4937960;29;831;-71
2024/01/22 09:39:29;;;;;;;;;;;;;;;21.53;19.22;99746.97;4938366;29;795;-71
2024/01/22 09:41:54;;;;;;;;;;;;;;;21.58;19.28;99746.56;4952066;28;1143;-71
2024/01/22 09:44:20;;;;;;;;;;;;;;;21.56;19.03;99746.19;4977112;28;1911;-71
2024/01/22 09:46:45;;;;;;;;;;;;;;;21.77;18.85;99751.06;4977234;28;1456;-70
2024/01/22 09:49:11;;;;;;;;;;;;;;;21.22;19.34;99746.47;4961018;28;756;-71
2024/01/22 09:51:36;;;;;;;;;;;;;;;21.03;19.56;99747.63;4976877;28;1305;-71
2024/01/22 09:54:08;;;;;;;;;;;;;;;21.17;19.65;99741.22;4976564;28;973;-71
2024/01/22 09:56:34;;;;;;;;;;;;;;;21.27;19.46;99740.41;4976604;28;748;-71
2024/01/22 09:59:01;;;;;;;;;;;;;;;21.36;19.54;99736.44;4984604;28;822;-71
2024/01/22 10:01:27;;;;;;;;;;;;;;;21.52;19.28;99732.00;4995681;28;990;-71
2024/01/22 10:03:53;;;;;;;;;;;;;;;21.22;19.68;99735.16;4979693;28;1906;-71
2024/01/22 10:06:21;;;;;;;;;;;;;;;21.53;19.08;99724.31;4995695;28;1223;-71
2024/01/22 10:08:55;;;;;;;;;;;;;;;21.75;18.78;99727.97;4980072;28;740;-71
2024/01/22 10:11:21;;;;;;;;;;;;;;;21.19;19.48;99733.16;4979216;28;812;-71
2024/01/22 10:13:52;;;;;;;;;;;;;;;20.90;19.95;99728.59;4979549;28;1217;-70
2024/01/22 10:16:18;;;;;;;;;;;;;;;21.07;19.80;99730.66;4964053;28;1188;-71
2024/01/22 10:18:57;;;;;;;;;;;;;;;21.20;19.84;99723.44;4995678;28;700;-71
2024/01/22 10:21:22;;;;;;;;;;;;;;;21.75;18.84;99720.28;4979386;28;864;-71
2024/01/22 10:23:55;;;;;;;;;;;;;;;21.74;18.86;99724.31;4963379;28;1899;-71
2024/01/22 10:26:21;;;;;;;;;;;;;;;21.68;19.23;99725.94;4995275;28;997;-71
2024/01/22 10:28:47;;;;;;;;;;;;;;;21.62;19.20;99727.56;4963374;28;1160;-71
2024/01/22 10:31:13;;;;;;;;;;;;;;;21.73;19.15;99719.88;4979419;28;1008;-70
2024/01/22 10:33:38;;;;;;;;;;;;;;;21.55;19.36;99721.88;5003151;28;1195;-71
2024/01/22 10:36:17;;;;;;;;;;;;;;;21.66;19.05;99717.06;5019536;28;826;-71
2024/01/22 10:38:47;;;;;;;;;;;;;;;21.32;19.55;99725.09;5003200;28;716;-71
2024/01/22 10:41:15;;;;;;;;;;;;;;;21.07;19.75;99713.69;4979038;28;1276;-70
2024/01/22 10:43:41;;;;;;;;;;;;;;;20.96;19.92;99712.84;4962896;28;1903;-71
2024/01/22 10:46:06;;;;;;;;;;;;;;;21.36;19.80;99696.78;4979358;28;767;-71
2024/01/22 10:48:32;;;;;;;;;;;;;;;21.15;19.89;99698.34;4978760;28;773;-71
2024/01/22 10:50:57;;;;;;;;;;;;;;;21.64;19.38;99702.47;4962904;28;782;-71
2024/01/22 10:53:23;;;;;;;;;;;;;;;21.94;18.86;99696.38;4978736;28;766;-71
2024/01/22 10:56:03;;;;;;;;;;;;;;;21.33;19.78;99689.91;4978988;28;874;-71
2024/01/22 10:58:33;;;;;;;;;;;;;;;21.01;20.11;99692.66;4995182;28;945;-71
2024/01/22 11:01:02;;;;;;;;;;;;;;;21.22;19.67;99686.22;4940211;29;1351;-71
2024/01/22 11:03:30;;;;;;;;;;;;;;;21.49;19.32;99684.66;4917641;29;1985;-71
2024/01/22 11:05:56;;;;;;;;;;;;;;;21.55;19.15;99687.88;4917794;29;1119;-71
2024/01/22 11:08:22;;;;;;;;;;;;;;;21.33;19.67;99690.72;4917970;29;925;-71
2024/01/22 11:10:47;;;;;;;;;;;;;;;21.45;19.44;99683.03;4918078;29;863;-70
2024/01/22 11:13:13;;;;;;;;;;;;;;;21.61;19.40;99680.63;4935311;29;977;-71
2024/01/22 11:15:39;;;;;;;;;;;;;;;21.70;19.30;99683.84;4920904;29;996;-70
2024/01/22 11:18:06;;;;;;;;;;;;;;;21.39;19.47;99673.31;4921327;29;824;-71
2024/01/22 11:20:32;;;;;;;;;;;;;;;21.76;19.25;99682.25;4936632;29;915;-70
2024/01/22 11:22:58;;;;;;;;;;;;;;;21.44;19.72;99670.91;4921252;29;1899;-71
2024/01/22 11:25:24;;;;;;;;;;;;;;;21.05;20.06;99677.31;4917703;29;954;-71
2024/01/22 11:27:49;;;;;;;;;;;;;;;21.13;20.12;99671.63;4917832;29;961;-71
2024/01/22 11:30:21;;;;;;;;;;;;;;;21.56;19.56;99666.88;4901659;29;1099;-71
2024/01/22 11:32:47;;;;;;;;;;;;;;;21.46;19.54;99667.69;4949238;29;860;-71
2024/01/22 11:35:12;;;;;;;;;;;;;;;21.66;19.31;99668.06;4935679;29;1335;-71
2024/01/22 11:37:38;;;;;;;;;;;;;;;21.21;19.78;99671.25;4939627;29;1235;-71
2024/01/22 11:40:06;;;;;;;;;;;;;;;21.61;19.33;99680.63;4923991;29;964;-71
2024/01/22 11:42:32;;;;;;;;;;;;;;;21.39;19.77;99664.81;4940021;29;792;-70
2024/01/22 11:45:06;;;;;;;;;;;;;;;21.62;19.46;99673.75;4955764;28;1910;-71
2024/01/22 11:47:32;;;;;;;;;;;;;;;21.68;19.19;99668.47;4923717;29;804;-71
2024/01/22 11:50:02;;;;;;;;;;;;;;;20.98;20.09;99668.78;4939669;29;1066;-71
2024/01/22 11:52:27;;;;;;;;;;;;;;;21.24;19.77;99666.81;4924067;29;1215;-71
2024/01/22 11:54:57;;;;;;;;;;;;;;;21.28;19.76;99662.75;4924042;29;793;-70
2024/01/22 11:57:23;;;;;;;;;;;;;;;21.49;19.58;99659.16;4974302;28;876;-71
2024/01/22 11:59:58;;;;;;;;;;;;;;;21.79;19.02;99658.75;4978363;28;899;-71
2024/01/22 12:02:23;;;;;;;;;;;;;;;21.61;19.45;99662.84;4981995;28;1104;-71
2024/01/22 12:04:49;;;;;;;;;;;;;;;21.61;19.52;99657.97;4981545;28;1993;-71
2024/01/22 12:07:14;;;;;;;;;;;;;;;21.59;19.47;99649.06;5034350;28;938;-70
2024/01/22 12:09:40;;;;;;;;;;;;;;;21.93;19.27;99651.47;5039922;28;715;-71
2024/01/22 12:12:05;;;;;;;;;;;;;;;21.50;19.49;99645.81;5022092;28;1138;-71
2024/01/22 12:14:31;;;;;;;;;;;;;;;21.00;20.35;99643.72;5005623;28;1382;-71
2024/01/22 12:17:00;;;;;;;;;;;;;;;21.23;20.15;99637.69;5005787;28;775;-71
2024/01/22 12:19:25;;;;;;;;;;;;;;;21.49;19.88;99642.19;5005500;28;822;-71
2024/01/22 12:21:51;;;;;;;;;;;;;;;21.48;19.91;99637.72;4997917;28;1021;-71
2024/01/22 12:24:16;;;;;;;;;;;;;;;21.78;19.30;99639.34;4981785;28;1914;-70
2024/01/22 12:26:42;;;;;;;;;;;;;;;21.79;19.27;99646.59;4981402;28;1319;-71
2024/01/22 12:29:18;;;;;;;;;;;;;;;21.59;19.45;99634.88;4997781;28;732;-71
2024/01/22 12:31:44;;;;;;;;;;;;;;;21.64;19.75;99640.16;4997769;28;938;-71
2024/01/22 12:34:13;;;;;;;;;;;;;;;21.64;19.63;99633.69;5013727;28;953;-71
2024/01/22 12:36:38;;;;;;;;;;;;;;;21.17;20.03;99625.16;5013209;28;815;-70
2024/01/22 12:39:05;;;;;;;;;;;;;;;21.11;20.04;99629.59;4981689;28;594;-71
2024/01/22 12:41:31;;;;;;;;;;;;;;;21.21;20.33;99623.13;4997738;28;825;-71
2024/01/22 12:43:59;;;;;;;;;;;;;;;21.51;19.60;99625.59;5000601;28;1918;-71
2024/01/22 12:46:24;;;;;;;;;;;;;;;21.58;19.83;99636.09;5016813;28;1023;-71
2024/01/22 12:48:53;;;;;;;;;;;;;;;21.52;19.77;99632.06;5016906;28;799;-71
2024/01/22 12:51:23;;;;;;;;;;;;;;;21.40;19.96;99632.47;5017209;28;806;-71
2024/01/22 12:53:49;;;;;;;;;;;;;;;21.47;19.74;99623.97;4999236;28;925;-70
2024/01/22 12:56:15;;;;;;;;;;;;;;;21.57;19.50;99626.00;4977680;28;955;-70